Time;durP1;ratioP1;P1;durP2;ratioP2;P2;SDS_P1;SDS_P2;PMS_P1;PMS_P2;Temp;Humidity;BMP_temperature;BMP_pressure;BME280_temperature;BME280_humidity;BME280_pressure;Samples;Min_cycle;Max_cycle;Signal;HPM_P1;HPM_P2
2022/07/03 13:37:43;;;;;;;23.42;21.73;;;;;;;-141.02;48.97;80533.66;5130775;27;20544;-74
2022/07/03 13:40:10;;;;;;;24.00;22.30;;;;;;;-141.02;48.54;80520.06;5130232;27;20283;-75
2022/07/03 13:42:38;;;;;;;23.70;22.10;;;;;;;-141.02;50.89;80681.19;5130525;27;20291;-77
2022/07/03 13:45:06;;;;;;;23.80;22.10;;;;;;;-141.02;51.52;80720.00;5130388;27;20253;-74
2022/07/03 13:47:33;;;;;;;24.38;22.67;;;;;;;-141.02;52.42;80832.59;5130086;27;20654;-76
2022/07/03 13:50:00;;;;;;;23.70;22.08;;;;;;;-141.02;53.60;80906.38;5130047;27;20192;-75
2022/07/03 13:52:28;;;;;;;23.33;21.70;;;;;;;-141.02;54.63;80993.72;5130268;27;20197;-76
2022/07/03 13:54:56;;;;;;;23.33;21.73;;;;;;;-141.02;54.68;81030.59;5129929;27;20197;-76
2022/07/03 13:57:24;;;;;;;23.25;21.65;;;;;;;-141.02;55.11;80995.66;5129930;27;20197;-76
2022/07/03 13:59:51;;;;;;;23.35;21.75;;;;;;;-141.02;55.19;81046.13;5129785;27;20279;-76
2022/07/03 14:02:18;;;;;;;22.80;21.20;;;;;;;-141.02;55.69;81071.38;5129781;27;20250;-75
2022/07/03 14:04:46;;;;;;;22.90;21.30;;;;;;;-141.02;55.95;81073.31;5129753;27;20232;-75
2022/07/03 14:07:13;;;;;;;23.10;21.50;;;;;;;-141.02;56.09;81092.75;5129643;27;20228;-75
2022/07/03 14:09:40;;;;;;;23.15;21.55;;;;;;;-141.02;55.37;81112.16;5129983;27;20276;-75
2022/07/03 14:12:10;;;;;;;23.05;21.45;;;;;;;-141.02;56.24;81162.63;5129582;27;20189;-76
2022/07/03 14:14:37;;;;;;;23.23;21.63;;;;;;;-141.02;56.02;81178.16;5129963;27;20295;-74
2022/07/03 14:17:05;;;;;;;23.70;22.10;;;;;;;-141.02;55.95;81207.28;5129824;27;20220;-75
2022/07/03 14:19:32;;;;;;;23.20;21.60;;;;;;;-141.02;56.59;81253.88;5129505;27;20288;-76
2022/07/03 14:22:00;;;;;;;22.27;20.67;;;;;;;-141.02;56.27;81201.47;5129390;27;20201;-75
2022/07/03 14:24:27;;;;;;;22.08;20.48;;;;;;;-141.02;55.66;81187.88;5129373;27;20232;-75
2022/07/03 14:32:31;;;;;;;21.88;20.38;;;;;;;-141.02;57.32;81232.53;5129520;28;20218;-75
2022/07/03 14:34:59;;;;;;;22.15;20.55;;;;;;;-141.02;57.14;81240.28;5129605;27;20189;-75
2022/07/03 14:37:26;;;;;;;21.70;20.20;;;;;;;-141.02;56.12;81224.75;5121843;27;20702;-75
2022/07/03 14:39:54;;;;;;;21.67;20.17;;;;;;;-141.02;57.69;81267.47;5115397;28;20194;-75
2022/07/03 14:42:21;;;;;;;21.38;19.88;;;;;;;-141.02;57.78;81259.69;5115303;28;20193;-78
2022/07/03 14:44:50;;;;;;;21.13;19.73;;;;;;;-141.02;58.73;81284.94;5115592;28;20248;-76
2022/07/03 14:47:18;;;;;;;21.90;20.40;;;;;;;-141.02;58.14;81325.72;5115482;28;20228;-75
2022/07/03 14:49:46;;;;;;;22.35;20.85;;;;;;;-141.02;57.81;81281.06;5115199;28;20646;-77
2022/07/03 14:52:13;;;;;;;22.40;20.90;;;;;;;-141.02;57.98;81317.94;5115154;28;20204;-76
2022/07/03 14:54:41;;;;;;;21.90;20.40;;;;;;;-141.02;58.15;81288.81;5115313;28;20275;-77
2022/07/03 14:57:25;;;;;;;22.17;20.58;;;;;;;-141.02;58.13;81306.31;5115274;28;20288;-76
2022/07/03 15:00:03;;;;;;;22.02;20.42;;;;;;;-141.02;58.10;81317.94;5115013;28;20250;-77
2022/07/03 15:02:40;;;;;;;21.92;20.42;;;;;;;-141.02;58.40;81325.72;5114959;28;20196;-75
2022/07/03 15:05:10;;;;;;;22.42;20.92;;;;;;;-141.02;58.81;81201.47;5114919;28;20238;-76
2022/07/03 15:07:40;;;;;;;22.42;20.92;;;;;;;-141.02;58.68;81327.66;5114883;28;20196;-75
2022/07/03 15:10:09;;;;;;;22.17;20.67;;;;;;;-141.02;59.02;81347.06;5114785;27;20669;-80
2022/07/03 15:12:41;;;;;;;22.30;20.80;;;;;;;-141.02;59.30;81374.25;5114726;28;20628;-75
2022/07/03 15:15:14;;;;;;;21.92;20.42;;;;;;;-141.02;59.49;81407.25;5114640;28;20224;-75
2022/07/03 15:17:43;;;;;;;21.42;20.02;;;;;;;-141.02;60.47;81436.38;5114719;28;20189;-75
2022/07/03 15:20:14;;;;;;;21.42;20.02;;;;;;;-141.02;60.14;81391.72;5114860;28;20203;-75
2022/07/03 15:22:42;;;;;;;21.70;20.30;;;;;;;-141.02;59.88;81405.31;5114935;28;20228;-76
2022/07/03 15:25:10;;;;;;;22.27;20.85;;;;;;;-141.02;59.92;81376.19;5114817;28;20217;-76
2022/07/03 15:27:38;;;;;;;22.00;20.50;;;;;;;-141.02;60.14;81415.03;5114437;28;20315;-77
2022/07/03 15:30:08;;;;;;;22.48;20.98;;;;;;;-141.02;60.27;81461.63;5114385;28;20728;-75
2022/07/03 15:32:38;;;;;;;21.83;20.33;;;;;;;-141.02;60.13;81430.56;5114383;28;20196;-82
2022/07/03 15:35:06;;;;;;;21.65;20.25;;;;;;;-141.02;60.05;81457.75;5114341;28;20194;-76
2022/07/03 15:37:45;;;;;;;22.08;20.58;;;;;;;-141.02;59.83;81481.06;5114105;28;20233;-76
2022/07/03 15:40:19;;;;;;;21.80;20.30;;;;;;;-141.02;60.31;81475.22;5114222;28;20185;-75
2022/07/03 15:43:26;;;;;;;22.15;20.65;;;;;;;-141.02;60.13;81484.94;5114529;28;20217;-75
2022/07/03 15:46:03;;;;;;;21.75;20.25;;;;;;;-141.02;60.23;81508.22;5114409;28;20262;-75
2022/07/03 15:48:40;;;;;;;22.10;20.60;;;;;;;-141.02;60.91;81512.13;5113623;28;20262;-75
2022/07/03 15:51:17;;;;;;;21.92;20.42;;;;;;;-141.02;60.90;81508.22;5114076;28;20726;-75
2022/07/03 15:53:49;;;;;;;22.00;20.50;;;;;;;-141.02;61.08;81510.19;5113900;28;20224;-75
2022/07/03 15:56:22;;;;;;;22.05;20.60;;;;;;;-141.02;61.40;81463.56;5113939;28;20192;-75
2022/07/03 15:58:51;;;;;;;22.13;20.63;;;;;;;-141.02;61.44;81521.81;5113848;28;20186;-75
2022/07/03 16:04:10;;;;;;;22.00;20.50;;;;;;;-141.02;62.01;81395.63;5114176;28;20658;-76
2022/07/03 16:06:41;;;;;;;22.00;20.50;;;;;;;-141.02;62.59;81568.44;5113561;28;20308;-75
2022/07/03 16:09:09;;;;;;;21.75;20.25;;;;;;;-141.02;62.23;81558.72;5113645;28;20185;-75
2022/07/03 16:11:37;;;;;;;21.50;20.00;;;;;;;-141.02;63.14;81601.44;5113549;28;20647;-75
2022/07/03 16:14:05;;;;;;;21.45;20.00;;;;;;;-141.02;63.11;81599.50;5113415;28;20574;-75
2022/07/03 16:16:34;;;;;;;21.45;19.95;;;;;;;-141.02;62.75;81593.66;5113473;28;20284;-76
2022/07/03 16:19:03;;;;;;;21.85;20.35;;;;;;;-141.02;63.12;81585.91;5113377;28;20223;-75
2022/07/03 16:21:32;;;;;;;21.15;19.75;;;;;;;-141.02;63.77;81605.31;5113341;28;20196;-73
2022/07/03 16:24:00;;;;;;;21.38;19.98;;;;;;;-141.02;64.17;81657.75;5113299;28;20194;-74
2022/07/03 16:26:30;;;;;;;21.50;20.10;;;;;;;-141.02;64.34;81620.84;5113254;28;20225;-74
2022/07/03 16:28:58;;;;;;;20.95;19.63;;;;;;;-141.02;64.74;81634.44;5113875;28;20217;-74
2022/07/03 16:31:28;;;;;;;21.38;19.98;;;;;;;-141.02;64.50;81481.06;5113111;28;20189;-75
2022/07/03 16:34:04;;;;;;;21.45;20.05;;;;;;;-141.02;64.42;81613.09;5113037;28;20185;-75
2022/07/03 16:36:36;;;;;;;20.92;19.52;;;;;;;-141.02;64.16;81613.09;5113235;28;20236;-75
2022/07/03 16:39:07;;;;;;;21.88;20.48;;;;;;;-141.02;63.97;81407.25;5113054;28;20272;-75
2022/07/03 16:41:37;;;;;;;21.77;20.38;;;;;;;-141.02;63.99;81609.19;5113040;28;20191;-75
2022/07/03 16:44:07;;;;;;;21.30;20.00;;;;;;;-141.02;64.79;81620.84;5113280;28;20232;-74
2022/07/03 16:46:36;;;;;;;21.50;20.10;;;;;;;-141.02;65.30;81636.38;5112787;28;20225;-75
2022/07/03 16:49:04;;;;;;;21.15;19.85;;;;;;;-141.02;65.29;81649.97;5112935;28;20281;-75
2022/07/03 16:51:35;;;;;;;21.92;20.52;;;;;;;-141.02;65.69;81683.00;5113164;28;20641;-73
2022/07/03 16:54:03;;;;;;;22.08;20.67;;;;;;;-141.02;66.19;81710.19;5112919;28;20197;-74
2022/07/03 16:56:31;;;;;;;21.88;20.48;;;;;;;-141.02;66.08;81638.31;5112818;28;20236;-76
2022/07/03 16:59:00;;;;;;;21.83;20.42;;;;;;;-141.02;65.63;81710.19;5112796;28;20197;-74
2022/07/03 17:01:28;;;;;;;21.90;20.50;;;;;;;-141.02;66.21;81717.94;5112516;28;20193;-74
2022/07/03 17:03:57;;;;;;;20.70;19.40;;;;;;;-141.02;66.56;81725.72;5112736;28;20194;-73
2022/07/03 17:06:26;;;;;;;21.13;19.83;;;;;;;-141.02;66.59;81739.31;5112596;28;20227;-74
2022/07/03 17:08:55;;;;;;;20.35;19.15;;;;;;;-141.02;66.69;81717.94;5112657;28;20197;-74
2022/07/03 17:11:23;;;;;;;20.80;19.50;;;;;;;-141.02;66.08;81716.00;5113001;28;20196;-75
2022/07/03 17:13:51;;;;;;;20.33;19.13;;;;;;;-141.02;66.41;81725.72;5112607;28;20193;-74
2022/07/03 17:16:22;;;;;;;20.48;19.17;;;;;;;-141.02;66.35;81733.47;5112598;28;20189;-76
2022/07/03 17:18:51;;;;;;;20.70;19.40;;;;;;;-141.02;66.60;81733.47;5112602;28;20690;-74
2022/07/03 17:21:26;;;;;;;20.83;19.52;;;;;;;-141.02;66.23;81754.84;5113335;28;20193;-73
2022/07/03 17:23:57;;;;;;;20.75;19.45;;;;;;;-141.02;66.01;81696.59;5112518;28;20275;-75
2022/07/03 17:26:26;;;;;;;20.42;19.23;;;;;;;-141.02;66.37;81747.06;5112727;28;20213;-73
2022/07/03 17:29:00;;;;;;;19.73;18.52;;;;;;;-141.02;66.50;81756.78;5112484;28;20197;-75
2022/07/03 17:31:28;;;;;;;19.40;18.20;;;;;;;-141.02;67.32;81764.53;5112473;28;20194;-73
2022/07/03 17:34:00;;;;;;;19.80;18.60;;;;;;;-141.02;67.06;81795.63;5112397;28;20201;-75
2022/07/03 17:36:28;;;;;;;19.63;18.42;;;;;;;-141.02;67.41;81766.50;5112147;28;20247;-74
2022/07/03 17:38:59;;;;;;;19.67;18.48;;;;;;;-141.02;67.93;81791.72;5112350;28;20662;-75
2022/07/03 17:41:28;;;;;;;19.30;18.10;;;;;;;-141.02;67.81;81807.25;5112343;28;20197;-74
2022/07/03 17:43:56;;;;;;;20.35;19.05;;;;;;;-141.02;67.56;81807.25;5112344;28;20806;-75
2022/07/03 17:46:24;;;;;;;20.40;19.10;;;;;;;-141.02;67.41;81799.50;5112182;28;20228;-75
2022/07/03 17:48:52;;;;;;;20.17;18.90;;;;;;;-141.02;67.87;81834.44;5112601;28;20247;-74
2022/07/03 17:51:23;;;;;;;20.33;19.02;;;;;;;-141.02;67.69;81842.22;5112224;28;20246;-74
2022/07/03 17:53:51;;;;;;;19.45;18.25;;;;;;;-141.02;67.86;81851.94;5112186;28;20284;-73
2022/07/03 17:56:23;;;;;;;19.85;18.65;;;;;;;-141.02;68.57;81867.47;5112179;28;20231;-74
2022/07/03 17:58:54;;;;;;;19.83;18.63;;;;;;;-141.02;68.94;81912.13;5112215;28;20189;-74
2022/07/03 18:01:21;;;;;;;19.83;18.63;;;;;;;-141.02;68.57;81873.28;5112207;28;20189;-74
2022/07/03 18:03:48;;;;;;;20.30;19.00;;;;;;;-141.02;68.41;81912.13;5112100;28;20289;-74
2022/07/03 18:06:21;;;;;;;20.42;19.13;;;;;;;-141.02;68.15;81877.19;5112032;28;20280;-74
2022/07/03 18:08:57;;;;;;;19.90;18.70;;;;;;;-141.02;68.92;81908.25;5112394;28;20181;-74
2022/07/03 18:11:34;;;;;;;20.55;19.25;;;;;;;-141.02;68.88;81912.13;5112085;28;20186;-74
2022/07/03 18:14:06;;;;;;;20.38;19.08;;;;;;;-141.02;68.82;81921.84;5116123;28;20268;-74
2022/07/03 18:16:35;;;;;;;20.13;18.83;;;;;;;-141.02;69.29;81939.31;5115930;27;20702;-73
2022/07/03 18:19:04;;;;;;;20.35;19.05;;;;;;;-141.02;68.72;81950.97;5115828;28;20203;-74
2022/07/03 18:21:33;;;;;;;20.77;19.48;;;;;;;-141.02;69.72;81950.97;5115788;28;20236;-73
2022/07/03 18:24:03;;;;;;;20.35;19.05;;;;;;;-141.02;69.59;81985.91;5115723;28;20197;-73
2022/07/03 18:26:40;;;;;;;20.08;18.77;;;;;;;-141.02;69.57;81991.75;5115946;28;20219;-74
2022/07/03 18:29:11;;;;;;;20.15;18.95;;;;;;;-141.02;69.72;81985.91;5115634;28;20189;-73
2022/07/03 18:31:40;;;;;;;19.98;18.77;;;;;;;-141.02;69.35;82007.28;5115954;28;20631;-73
2022/07/03 18:34:08;;;;;;;20.02;18.83;;;;;;;-141.02;69.17;83399.97;5115555;28;20280;-73
2022/07/03 18:36:35;;;;;;;19.63;18.42;;;;;;;-141.02;69.03;81966.50;5115331;28;20239;-74
2022/07/03 18:39:04;;;;;;;19.45;18.25;;;;;;;-141.02;69.20;81983.97;5115462;28;20558;-73
2022/07/03 18:41:33;;;;;;;19.17;17.98;;;;;;;-141.02;68.36;81999.50;5115389;28;20659;-73
2022/07/03 18:44:01;;;;;;;19.05;17.85;;;;;;;-141.02;68.11;81958.72;5115393;27;20197;-73
2022/07/03 18:46:29;;;;;;;19.10;17.90;;;;;;;-141.02;68.52;82005.34;5115184;28;20674;-73
2022/07/03 18:48:56;;;;;;;19.27;18.08;;;;;;;-141.02;67.83;81962.63;5115312;27;20193;-74
2022/07/03 18:51:29;;;;;;;19.45;18.25;;;;;;;-141.02;67.99;81966.50;5115511;28;20197;-73
2022/07/03 18:54:07;;;;;;;19.83;18.55;;;;;;;-141.02;68.71;81972.31;5115237;28;20200;-73
2022/07/03 18:56:44;;;;;;;18.80;17.63;;;;;;;-141.02;69.03;81972.31;5115410;28;20188;-73
2022/07/03 18:59:19;;;;;;;19.75;18.45;;;;;;;-141.02;69.01;82024.75;5115152;28;20647;-73
2022/07/03 19:01:49;;;;;;;19.33;18.13;;;;;;;-141.02;69.27;81985.91;5115366;28;20267;-73
2022/07/03 19:04:41;;;;;;;19.15;17.95;;;;;;;-141.02;69.36;82032.53;5115058;28;20185;-73
2022/07/03 19:07:10;;;;;;;19.20;18.00;;;;;;;-141.02;69.00;82028.66;5114904;28;20235;-73
2022/07/03 19:09:43;;;;;;;19.17;17.98;;;;;;;-141.02;68.92;81997.56;5114865;28;20201;-73
2022/07/03 19:12:14;;;;;;;19.38;18.17;;;;;;;-141.02;69.68;82036.41;5114912;28;20193;-73
2022/07/03 19:14:43;;;;;;;19.17;17.98;;;;;;;-141.02;70.62;82030.59;5114873;28;20189;-73
2022/07/03 19:17:13;;;;;;;19.25;18.05;;;;;;;-141.02;70.28;82048.06;5114714;28;20186;-73
2022/07/03 19:19:40;;;;;;;18.95;17.75;;;;;;;-141.02;70.94;82036.41;5114749;28;20284;-73
2022/07/03 19:22:09;;;;;;;19.20;18.00;;;;;;;-141.02;71.19;82030.59;5115426;28;20561;-73
2022/07/03 19:24:36;;;;;;;19.02;17.83;;;;;;;-141.02;71.24;82059.72;5114494;27;20199;-73
2022/07/03 19:27:06;;;;;;;18.52;17.42;;;;;;;-141.02;71.92;82084.97;5115250;28;20225;-74
2022/07/03 19:29:35;;;;;;;19.05;17.95;;;;;;;-141.02;73.48;82083.03;5114517;28;20205;-73
2022/07/03 19:32:03;;;;;;;18.85;17.75;;;;;;;-141.02;74.36;82116.03;5114758;28;20198;-72
2022/07/03 19:34:30;;;;;;;18.80;17.70;;;;;;;-141.02;74.97;82117.97;5114369;28;20200;-73
2022/07/03 19:36:57;;;;;;;19.58;18.48;;;;;;;-141.02;74.55;82106.31;5114153;28;20272;-73
2022/07/03 19:39:24;;;;;;;19.10;18.00;;;;;;;-141.02;73.57;82116.03;5114284;28;20197;-73
2022/07/03 19:41:52;;;;;;;18.73;17.63;;;;;;;-141.02;74.21;82133.50;5114583;28;20193;-73
2022/07/03 19:44:19;;;;;;;18.83;17.73;;;;;;;-141.02;74.11;82112.16;5115018;28;20250;-73
2022/07/03 19:46:48;;;;;;;19.15;18.05;;;;;;;-141.02;74.99;82139.34;5114102;28;20193;-73
2022/07/03 19:49:15;;;;;;;19.40;18.27;;;;;;;-141.02;74.34;82119.91;5114119;28;20193;-73
2022/07/03 19:51:42;;;;;;;19.02;17.92;;;;;;;-141.02;74.14;82160.69;5114344;28;20221;-73
2022/07/03 19:54:09;;;;;;;18.58;17.48;;;;;;;-141.02;74.09;82141.28;5114018;28;20193;-73
2022/07/03 19:56:37;;;;;;;18.33;17.23;;;;;;;-141.02;76.93;82195.66;5113915;28;20563;-73
2022/07/03 19:59:06;;;;;;;18.17;17.08;;;;;;;-141.02;78.77;82226.72;5113901;28;20293;-73
2022/07/03 20:01:33;;;;;;;18.30;17.30;;;;;;;-141.02;81.10;82246.16;5113865;28;20280;-73
2022/07/03 20:04:02;;;;;;;17.98;16.98;;;;;;;-141.02;82.93;82259.75;5113831;28;20201;-73
2022/07/03 20:06:29;;;;;;;17.27;16.38;;;;;;;-141.02;85.97;82281.13;5113754;28;20280;-73
2022/07/03 20:08:56;;;;;;;16.63;15.82;;;;;;;-141.02;87.42;82323.84;5114215;28;20616;-73
2022/07/03 20:11:24;;;;;;;16.40;15.60;;;;;;;-141.02;89.59;82339.38;5113947;28;20200;-73
2022/07/03 20:13:51;;;;;;;16.25;15.45;;;;;;;-141.02;91.09;82333.56;5113878;28;20275;-73
2022/07/03 20:16:19;;;;;;;16.17;15.48;;;;;;;-141.02;91.42;82366.56;5113908;28;20200;-74
2022/07/03 20:18:46;;;;;;;16.90;16.10;;;;;;;-141.02;91.94;82347.16;5113798;28;20346;-74
2022/07/03 20:21:15;;;;;;;16.85;16.05;;;;;;;-141.02;93.45;82376.28;5113470;28;20204;-73
2022/07/03 20:26:23;;;;;;;16.30;15.50;;;;;;;-141.02;96.72;82411.25;5113059;28;20570;-72
2022/07/03 20:28:51;;;;;;;16.30;15.52;;;;;;;-141.02;97.70;83316.41;5113559;28;20228;-73
2022/07/03 20:31:18;;;;;;;15.88;15.18;;;;;;;-141.02;99.19;82424.84;5113259;28;20208;-73
2022/07/03 20:33:45;;;;;;;15.90;15.20;;;;;;;-141.02;99.20;82459.78;5113483;28;20201;-73
2022/07/03 20:36:14;;;;;;;16.50;15.80;;;;;;;-141.02;98.71;82413.19;5112498;28;20224;-74
2022/07/03 20:38:42;;;;;;;16.05;15.35;;;;;;;-141.02;100.00;82442.31;5113146;28;20201;-73
2022/07/03 20:41:09;;;;;;;15.82;15.13;;;;;;;-141.02;99.51;82444.25;5113082;28;20280;-72
2022/07/03 20:43:37;;;;;;;15.80;15.10;;;;;;;-141.02;99.03;82455.91;5113375;28;20278;-73
2022/07/03 20:46:04;;;;;;;15.70;15.00;;;;;;;-141.02;98.20;82463.69;5113650;28;20201;-73
2022/07/03 20:48:31;;;;;;;16.25;15.48;;;;;;;-141.02;97.80;82463.69;5112860;28;20224;-73
2022/07/03 20:50:59;;;;;;;16.02;15.32;;;;;;;-141.02;98.31;82440.38;5113273;28;20193;-73
2022/07/03 20:53:28;;;;;;;15.90;15.20;;;;;;;-141.02;97.72;82457.84;5113179;28;20197;-73
2022/07/03 20:55:55;;;;;;;16.02;15.32;;;;;;;-141.02;98.50;82450.06;5112863;28;20193;-74
2022/07/03 20:58:22;;;;;;;16.05;15.35;;;;;;;-141.02;98.76;82504.47;5112847;28;20199;-73
2022/07/03 21:00:49;;;;;;;16.15;15.45;;;;;;;-141.02;99.85;82492.81;5113088;28;20193;-73
2022/07/03 21:03:17;;;;;;;16.25;15.55;;;;;;;-141.02;99.27;82455.91;5112768;28;20246;-73
2022/07/03 21:05:44;;;;;;;16.50;15.70;;;;;;;-141.02;98.61;82475.31;5112696;28;20193;-73
2022/07/03 21:08:11;;;;;;;16.40;15.70;;;;;;;-141.02;99.48;82485.03;5113004;28;20241;-73
2022/07/03 21:13:24;;;;;;;16.63;15.82;;;;;;;-141.02;100.00;82510.28;5113507;28;20192;-73
2022/07/03 21:15:52;;;;;;;16.88;16.08;;;;;;;-141.02;100.00;82481.16;5112565;28;20669;-74
2022/07/03 21:18:19;;;;;;;16.45;15.75;;;;;;;-141.02;100.00;82525.81;5112923;28;20295;-73
2022/07/03 21:20:46;;;;;;;16.50;15.80;;;;;;;-141.02;100.00;82490.88;5112528;28;20279;-73
2022/07/03 21:23:13;;;;;;;16.00;15.30;;;;;;;-141.02;100.00;82545.25;5112733;28;20276;-73
2022/07/03 21:25:42;;;;;;;16.00;15.30;;;;;;;-141.02;100.00;82502.53;5113292;28;20244;-74
2022/07/03 21:28:09;;;;;;;15.73;15.02;;;;;;;-141.02;100.00;82486.97;5112348;28;20315;-73
2022/07/03 21:30:37;;;;;;;15.88;15.18;;;;;;;-141.02;100.00;82479.22;5112439;28;20193;-73
2022/07/03 21:33:04;;;;;;;15.88;15.18;;;;;;;-141.02;100.00;82502.53;5112399;28;20636;-73
2022/07/03 21:35:31;;;;;;;15.95;15.25;;;;;;;-141.02;100.00;82523.88;5112205;28;20284;-73
2022/07/03 21:37:59;;;;;;;16.00;15.30;;;;;;;-141.02;100.00;82541.38;5112416;28;20185;-72
2022/07/03 21:40:26;;;;;;;15.15;14.55;;;;;;;-141.02;100.00;82572.44;5112368;28;20241;-74
2022/07/03 21:42:55;;;;;;;15.13;14.52;;;;;;;-141.02;100.00;82551.06;5112363;28;20193;-73
2022/07/03 21:45:22;;;;;;;15.98;15.27;;;;;;;-141.02;100.00;82498.63;5112263;28;20716;-75
2022/07/03 21:47:49;;;;;;;17.42;16.30;;;;;;;-141.02;98.67;82463.69;5114167;28;20228;-74
2022/07/03 21:50:16;;;;;;;15.82;15.13;;;;;;;-141.02;100.00;82556.91;5116769;28;20193;-76
2022/07/03 21:52:44;;;;;;;15.98;15.27;;;;;;;-141.02;100.00;82527.78;5116676;28;20266;-75
2022/07/03 21:55:11;;;;;;;16.40;15.70;;;;;;;-141.02;100.00;82502.53;5116364;28;20193;-73
2022/07/03 21:57:38;;;;;;;16.48;15.75;;;;;;;-141.02;97.62;82453.97;5116235;28;20743;-76
2022/07/03 22:00:08;;;;;;;16.50;15.70;;;;;;;-141.02;95.96;82436.50;5116271;28;20284;-73
2022/07/03 22:02:36;;;;;;;16.58;15.77;;;;;;;-141.02;95.21;82432.59;5116478;28;20219;-75
2022/07/03 22:05:03;;;;;;;16.52;15.73;;;;;;;-141.02;94.16;82374.34;5116134;28;20193;-80
2022/07/03 22:07:30;;;;;;;16.48;15.68;;;;;;;-141.02;93.88;82428.72;5116303;28;20274;-75
2022/07/03 22:09:57;;;;;;;16.70;15.90;;;;;;;-141.02;94.36;82428.72;5116298;28;20193;-75
2022/07/03 22:12:38;;;;;;;16.83;16.02;;;;;;;-141.02;94.45;82428.72;5115971;28;20232;-75
2022/07/03 22:15:09;;;;;;;16.80;16.00;;;;;;;-141.02;93.65;82442.31;5115973;28;20220;-75
2022/07/03 22:17:38;;;;;;;16.88;16.08;;;;;;;-141.02;93.32;82424.84;5115910;28;20220;-75
2022/07/03 22:20:07;;;;;;;16.38;15.57;;;;;;;-141.02;93.20;82444.25;5115847;28;20193;-76
2022/07/03 22:22:34;;;;;;;16.48;15.68;;;;;;;-141.02;92.95;82436.50;5116140;28;20219;-74
2022/07/03 22:25:02;;;;;;;16.65;15.85;;;;;;;-141.02;93.36;82432.59;5115726;28;20204;-75
2022/07/03 22:27:29;;;;;;;16.38;15.68;;;;;;;-141.02;93.19;82436.50;5115635;28;20276;-78
2022/07/03 22:29:57;;;;;;;17.02;16.23;;;;;;;-141.02;92.47;82382.09;5115638;28;20280;-75
2022/07/03 22:32:26;;;;;;;17.20;16.40;;;;;;;-141.02;92.04;82413.19;5115616;28;20250;-76
2022/07/03 22:34:53;;;;;;;16.90;16.10;;;;;;;-141.02;91.80;82401.53;5115593;28;20221;-76
2022/07/03 22:37:21;;;;;;;17.13;16.33;;;;;;;-141.02;91.30;82424.84;5115532;28;20264;-74
2022/07/03 22:39:49;;;;;;;17.40;16.50;;;;;;;-141.02;90.98;82426.78;5115773;28;20565;-75
2022/07/03 22:42:16;;;;;;;17.08;16.27;;;;;;;-141.02;90.97;82387.94;5115700;27;20200;-74
2022/07/03 22:44:43;;;;;;;17.05;16.25;;;;;;;-141.02;91.19;82432.59;5115389;28;20197;-74
2022/07/03 22:47:11;;;;;;;16.88;16.08;;;;;;;-141.02;91.13;82393.75;5115328;28;20197;-77
2022/07/03 22:49:41;;;;;;;16.95;16.15;;;;;;;-141.02;92.00;82426.78;5115209;28;20587;-75
2022/07/03 22:52:10;;;;;;;17.00;16.20;;;;;;;-141.02;91.65;82444.25;5115618;28;20189;-75
2022/07/03 22:54:41;;;;;;;16.77;15.98;;;;;;;-141.02;91.68;82434.53;5115151;28;20193;-75
2022/07/03 22:57:10;;;;;;;16.88;16.08;;;;;;;-141.02;91.51;82426.78;5115202;28;20272;-75
2022/07/03 22:59:38;;;;;;;16.60;15.80;;;;;;;-141.02;91.71;82452.03;5114559;28;20225;-74
2022/07/03 23:02:07;;;;;;;16.90;16.10;;;;;;;-141.02;91.31;82432.59;5115355;28;20193;-76
2022/07/03 23:04:34;;;;;;;17.00;16.20;;;;;;;-141.02;91.42;82413.19;5115001;28;20196;-78
2022/07/03 23:07:03;;;;;;;16.70;15.90;;;;;;;-141.02;90.98;82420.94;5114964;28;20197;-79
2022/07/03 23:09:30;;;;;;;17.00;16.20;;;;;;;-141.02;90.73;82386.00;5115149;28;20226;-76
2022/07/03 23:11:58;;;;;;;16.88;16.08;;;;;;;-141.02;90.33;82432.59;5115146;28;20654;-77
2022/07/03 23:14:25;;;;;;;16.95;16.15;;;;;;;-141.02;89.81;82384.03;5115137;28;20228;-74
2022/07/03 23:16:52;;;;;;;17.00;16.20;;;;;;;-141.02;89.49;82407.34;5115051;28;20225;-74
2022/07/03 23:19:20;;;;;;;16.88;16.08;;;;;;;-141.02;89.10;82380.16;5115026;28;20192;-75
2022/07/03 23:21:47;;;;;;;17.17;16.27;;;;;;;-141.02;88.66;82415.13;5114848;28;20575;-76
2022/07/03 23:24:16;;;;;;;17.10;16.23;;;;;;;-141.02;88.69;82386.00;5114611;28;20189;-77
2022/07/03 23:26:43;;;;;;;17.33;16.42;;;;;;;-141.02;88.29;82413.19;5114897;28;20200;-75
2022/07/03 23:29:10;;;;;;;17.27;16.38;;;;;;;-141.02;87.32;82409.28;5114418;28;20315;-76
2022/07/03 23:31:38;;;;;;;17.02;16.15;;;;;;;-141.02;87.51;82351.03;5114797;28;20202;-75
2022/07/03 23:34:06;;;;;;;17.15;16.25;;;;;;;-141.02;86.87;82382.09;5114392;28;20196;-74
2022/07/03 23:36:33;;;;;;;17.27;16.38;;;;;;;-141.02;86.05;82352.97;5114418;28;20221;-74
2022/07/03 23:39:00;;;;;;;16.80;16.00;;;;;;;-141.02;85.32;82384.03;5114305;28;20193;-76
2022/07/03 23:41:29;;;;;;;17.08;16.17;;;;;;;-141.02;85.05;82331.59;5114172;28;20198;-75
2022/07/03 23:43:56;;;;;;;17.58;16.67;;;;;;;-141.02;85.87;82378.22;5114274;28;20287;-76
2022/07/03 23:46:24;;;;;;;17.52;16.63;;;;;;;-141.02;85.53;82364.63;5114955;28;20193;-77
2022/07/03 23:51:36;;;;;;;17.63;16.73;;;;;;;-141.02;84.43;82382.09;5114168;28;20192;-76
2022/07/03 23:54:03;;;;;;;17.60;16.70;;;;;;;-141.02;83.51;82351.03;5114010;28;20203;-72
2022/07/03 23:56:32;;;;;;;17.67;16.77;;;;;;;-141.02;82.77;82323.84;5114017;28;20193;-75
2022/07/03 23:58:59;;;;;;;18.00;17.00;;;;;;;-141.02;82.60;82349.09;5113845;28;20280;-76
